172-й км МНП

Карта отелей и гостиниц, располагающихся рядом с аэропортом 172-й км МНП :

172-й км МНП Республика Коми 65° 4' 5.88" N, 57° 2' 50.9388" E
172-й км МНП Республика Коми 65° 4' 5.88" N, 57° 2' 50.9388" E
Код аэродрома ИКАО
HEC4
Код аэродрома RU
ХЕЦ4
Координаты
N65.06830° E057.04748°
Превышение над уровнем моря
83
Основная полоса
05/23
Курс магнитный
048,8/228,8
Длина основной ВПП
11
Ширина основной ВПП
11
Покрытие основной ВПП
Твёрдое
Освещение ВПП
Нет
Тип: 
Вертодром
Класс аэродрома: 
Принадлежность: 
ГА
Статус: 
Действующий
Сайт: 
E-mail аэродрома: 
Страна: 
Россия
Регион: 
Республика Коми
Город: 
Дополнительная информация: 
Оператор: нет данных.

Найти трансфер

С помощью этой формы Вы можете найти трансфер из аэропорта 172-й км МНП в город, аэропорт или вокзал:

Карта места

Javascript is required to view this map.

Погода в аэропортах:

Авиационная погода в Пулково

Регион: 
Погода METAR: 
ULLI 061030Z 10004MPS 6000 -SN SCT013 OVC043 M19/M21 Q1022 RESN R10R/491040 NOSIG
Время наблюдения
2021-12-06T10:30:00Z
Температура C
-19.0
Точка росы
-21.0
Направление ветра
100
Скорость ветра (узлы)
8
Метео видимость
3.73
Явления погоды
-SN
Условия полета
MVFR
Аэропорт подробнее: 

Авиационная погода в Киеве

Регион: 
Погода METAR: 
UKKK 061030Z 10003MPS 0400 R08/0550N FG VV001 00/00 Q1011 NOSIG
Время наблюдения
2021-12-06T10:30:00Z
Температура C
0.0
Точка росы
0.0
Направление ветра
100
Скорость ветра (узлы)
6
Метео видимость
0.25
Явления погоды
FG
Условия полета
LIFR
Аэропорт подробнее: 

Авиационная погода в аэропорту Центральный

Регион: 
Погода METAR: 
UNOO 061030Z 21004MPS 6000 -SHSN BKN026CB M03/M03 Q1013 R25/590140 NOSIG RMK QFE752
Время наблюдения
2021-12-06T10:30:00Z
Температура C
-3.0
Точка росы
-3.0
Направление ветра
210
Скорость ветра (узлы)
8
Метео видимость
3.73
Явления погоды
-SHSN
Условия полета
MVFR
Аэропорт подробнее: 

Авиационная погода в Нижнем Новгороде

Регион: 
Погода METAR: 
UWGG 061030Z 09002MPS 9999 -SN OVC010 M09/M12 Q1026 R18L/420048 NOSIG
Время наблюдения
2021-12-06T10:30:00Z
Температура C
-9.0
Точка росы
-12.0
Направление ветра
90
Скорость ветра (узлы)
4
Метео видимость
6.21
Явления погоды
-SN
Условия полета
MVFR
Аэропорт подробнее: